Time;durP1;ratioP1;P1;durP2;ratioP2;P2;SDS_P1;SDS_P2;PMS_P1;PMS_P2;Temp;Humidity;BMP_temperature;BMP_pressure;BME280_temperature;BME280_humidity;BME280_pressure;Samples;Min_cycle;Max_cycle;Signal;HPM_P1;HPM_P2
2023/01/18 00:00:40;;;;;;;13.00;6.30;;;;;;;-1.98;91.76;98383.63;107872;1256;60455;-77
2023/01/18 00:03:12;;;;;;;13.10;6.00;;;;;;;-1.99;91.67;98381.57;107673;1257;73058;-77
2023/01/18 00:05:40;;;;;;;11.30;5.90;;;;;;;-2.00;91.35;98378.55;107447;1260;68896;-77
2023/01/18 00:08:12;;;;;;;12.10;5.40;;;;;;;-2.01;91.15;98373.34;107904;1260;74443;-77
2023/01/18 00:10:39;;;;;;;10.80;5.90;;;;;;;-2.04;90.87;98367.90;108067;1262;61317;-77
2023/01/18 00:13:06;;;;;;;10.40;5.80;;;;;;;-2.07;90.91;98369.73;108007;1255;59023;-76
2023/01/18 00:15:35;;;;;;;11.20;6.10;;;;;;;-2.10;91.06;98366.55;107940;1257;73321;-76
2023/01/18 00:18:02;;;;;;;12.90;6.00;;;;;;;-2.11;91.09;98367.52;107740;1257;69965;-76
2023/01/18 00:20:30;;;;;;;10.90;5.80;;;;;;;-2.13;90.97;98366.59;107776;1256;73140;-76
2023/01/18 00:23:01;;;;;;;10.70;6.00;;;;;;;-2.14;91.14;98365.95;107633;1257;61220;-77
2023/01/18 00:25:29;;;;;;;10.70;5.90;;;;;;;-2.16;91.11;98367.84;107591;1258;61998;-78
2023/01/18 00:27:56;;;;;;;11.80;5.70;;;;;;;-2.18;90.97;98369.65;107537;1259;73133;-77
2023/01/18 00:30:26;;;;;;;11.60;5.70;;;;;;;-2.20;91.12;98367.06;107597;1257;70911;-77
2023/01/18 00:32:56;;;;;;;9.10;5.20;;;;;;;-2.23;91.10;98364.25;107579;1262;72744;-78
2023/01/18 00:35:25;;;;;;;10.10;5.80;;;;;;;-2.26;91.10;98363.97;107747;1257;61871;-78
2023/01/18 00:37:52;;;;;;;10.00;5.70;;;;;;;-2.30;90.77;98363.65;107985;1256;59382;-78
2023/01/18 00:40:21;;;;;;;11.30;5.80;;;;;;;-2.35;90.68;98363.06;108019;1257;74554;-77
2023/01/18 00:45:34;;;;;;;10.30;5.80;;;;;;;-2.47;90.82;98363.22;107389;1257;72035;-78
2023/01/18 00:48:02;;;;;;;10.50;5.60;;;;;;;-2.53;90.87;98355.97;107546;1257;61845;-78
2023/01/18 00:50:29;;;;;;;11.80;6.20;;;;;;;-2.57;90.99;98352.09;107418;1259;61301;-76
2023/01/18 00:52:58;;;;;;;11.10;5.80;;;;;;;-2.62;91.10;98350.86;107308;1257;73007;-77
2023/01/18 00:55:26;;;;;;;11.80;6.00;;;;;;;-2.66;91.34;98346.41;107805;1259;70442;-76
2023/01/18 00:57:53;;;;;;;11.50;6.50;;;;;;;-2.69;91.58;98348.08;107610;1256;72742;-77
2023/01/18 01:00:22;;;;;;;11.50;6.10;;;;;;;-2.72;91.79;98349.34;107323;1256;61890;-76
2023/01/18 01:02:50;;;;;;;12.10;7.00;;;;;;;-2.73;91.80;98347.80;107506;1256;61162;-77
2023/01/18 01:08:15;;;;;;;13.40;6.70;;;;;;;-2.77;91.86;98356.06;107362;1260;69982;-77
2023/01/18 01:10:48;;;;;;;10.50;6.00;;;;;;;-2.78;92.06;98359.89;107571;1257;72631;-76
2023/01/18 01:27:16;;;;;;;13.40;5.80;;;;;;;-2.95;91.89;98358.55;107542;1256;62095;-77
2023/01/18 01:29:43;;;;;;;10.90;6.50;;;;;;;-2.99;91.67;98360.80;107671;1256;61314;-77
2023/01/18 01:32:12;;;;;;;9.10;5.80;;;;;;;-3.04;91.71;98362.16;107605;1257;72622;-76
2023/01/18 01:34:39;;;;;;;10.30;6.20;;;;;;;-3.12;91.77;98366.99;107676;1259;70227;-76
2023/01/18 01:37:07;;;;;;;11.30;6.60;;;;;;;-3.17;91.77;98373.19;107629;1256;73172;-76
2023/01/18 01:39:33;;;;;;;10.20;6.40;;;;;;;-3.22;91.87;98371.66;107162;1257;62365;-77
2023/01/18 01:42:00;;;;;;;11.80;6.20;;;;;;;-3.28;91.80;98376.01;107530;1257;61746;-75
2023/01/18 01:44:29;;;;;;;12.20;6.30;;;;;;;-3.34;92.07;98374.80;107647;1257;74310;-76
2023/01/18 01:47:10;;;;;;;13.00;6.60;;;;;;;-3.37;92.47;98370.11;107387;1257;70073;-76
2023/01/18 01:49:41;;;;;;;14.40;6.60;;;;;;;-3.39;92.90;98372.31;107773;1257;71525;-76
2023/01/18 01:52:14;;;;;;;11.40;6.60;;;;;;;-3.37;93.26;98372.49;107369;1256;61217;-76
2023/01/18 01:54:58;;;;;;;10.40;6.30;;;;;;;-3.34;93.56;98375.13;107142;1258;61385;-76
2023/01/18 01:57:31;;;;;;;11.50;6.50;;;;;;;-3.30;93.66;98378.38;107338;1257;74236;-76
2023/01/18 02:00:13;;;;;;;13.30;6.80;;;;;;;-3.27;93.73;98375.20;107202;1260;72129;-78
2023/01/18 02:02:45;;;;;;;11.40;5.90;;;;;;;-3.28;93.22;98377.31;107233;1264;71894;-78
2023/01/18 02:05:15;;;;;;;12.00;6.20;;;;;;;-3.30;92.88;98384.63;107348;1256;61131;-77
2023/01/18 02:07:42;;;;;;;10.90;6.50;;;;;;;-3.35;92.63;98382.61;107325;1258;61547;-76
2023/01/18 02:10:10;;;;;;;11.90;6.70;;;;;;;-3.37;92.78;98385.84;107386;1256;74455;-78
2023/01/18 02:12:39;;;;;;;10.90;6.70;;;;;;;-3.40;92.73;98383.13;107666;1257;70145;-77
2023/01/18 02:15:07;;;;;;;11.70;6.80;;;;;;;-3.42;92.73;98386.41;107361;1256;72444;-77
2023/01/18 02:17:59;;;;;;;11.90;6.90;;;;;;;-3.42;92.89;98383.02;107245;1257;61807;-77
2023/01/18 02:20:47;;;;;;;14.20;7.10;;;;;;;-3.44;92.90;98380.02;107647;1257;61561;-78
2023/01/18 02:23:33;;;;;;;11.10;7.00;;;;;;;-3.44;93.06;98379.84;107150;1258;74419;-78
2023/01/18 02:26:22;;;;;;;12.10;7.10;;;;;;;-3.44;93.13;98384.87;107679;1257;69640;-77
2023/01/18 02:29:04;;;;;;;12.30;6.40;;;;;;;-3.42;93.29;98388.05;107446;1257;73243;-77
2023/01/18 02:31:43;;;;;;;13.00;6.70;;;;;;;-3.42;93.25;98387.45;107760;1257;61747;-77
2023/01/18 02:34:26;;;;;;;12.50;6.40;;;;;;;-3.40;93.66;98389.73;107356;1257;61156;-77
2023/01/18 02:37:03;;;;;;;9.80;6.20;;;;;;;-3.39;93.68;98389.74;107669;1257;74415;-78
2023/01/18 02:39:54;;;;;;;11.60;6.70;;;;;;;-3.39;93.47;98392.88;107477;1258;70345;-77
2023/01/18 02:48:22;;;;;;;11.40;6.60;;;;;;;-3.40;93.34;98389.66;108381;1257;59384;-78
2023/01/18 02:50:50;;;;;;;11.80;5.90;;;;;;;-3.40;93.27;98393.02;108123;1257;73296;-78
2023/01/18 02:53:17;;;;;;;12.20;6.60;;;;;;;-3.41;93.26;98395.52;108263;1257;69303;-79
2023/01/18 02:55:57;;;;;;;10.60;6.20;;;;;;;-3.40;93.23;98393.04;107997;1258;71516;-79
2023/01/18 02:58:56;;;;;;;10.80;6.50;;;;;;;-3.40;93.15;98399.94;107799;1257;61851;-78
2023/01/18 03:01:28;;;;;;;11.40;5.90;;;;;;;-3.42;93.15;98404.45;107295;1257;61097;-77
2023/01/18 03:04:02;;;;;;;10.70;6.10;;;;;;;-3.43;92.98;98409.99;107463;1259;75887;-77
2023/01/18 03:06:30;;;;;;;12.60;7.00;;;;;;;-3.46;93.05;98412.69;107546;1257;70435;-77
2023/01/18 03:08:58;;;;;;;10.10;6.20;;;;;;;-3.49;92.82;98413.04;107842;1257;72717;-76
2023/01/18 03:11:37;;;;;;;13.60;6.40;;;;;;;-3.55;92.86;98417.88;107425;1256;62324;-78
2023/01/18 03:14:10;;;;;;;11.10;6.40;;;;;;;-3.60;92.95;98413.85;107762;1256;61454;-76
2023/01/18 03:16:58;;;;;;;9.80;6.00;;;;;;;-3.63;92.85;98416.51;107474;1260;74461;-75
2023/01/18 03:23:36;;;;;;;12.50;6.60;;;;;;;-3.71;92.73;98412.70;107451;1257;73012;-77
2023/01/18 03:25:14;;;;;;;10.60;6.90;;;;;;;-3.73;93.44;98413.52;107493;1259;61898;-76
2023/01/18 03:36:21;;;;;;;12.20;6.90;;;;;;;-3.75;93.80;98414.31;107495;1257;72102;-75
2023/01/18 03:38:55;;;;;;;14.00;7.50;;;;;;;-3.74;93.68;98413.75;107550;1260;61636;-77
2023/01/18 03:41:26;;;;;;;15.40;7.00;;;;;;;-3.74;94.11;98416.62;108685;1256;61211;-77
2023/01/18 03:43:59;;;;;;;13.60;7.30;;;;;;;-3.72;94.01;98419.45;106841;1257;73513;-76
2023/01/18 03:46:29;;;;;;;12.60;6.40;;;;;;;-3.72;93.78;98415.63;107021;1260;72190;-78
2023/01/18 03:48:57;;;;;;;13.10;6.60;;;;;;;-3.73;93.82;98418.44;107309;1259;71523;-76
2023/01/18 03:52:02;;;;;;;11.40;6.90;;;;;;;-3.73;93.76;98416.75;106613;1256;61865;-76
2023/01/18 03:54:36;;;;;;;13.20;7.30;;;;;;;-3.75;93.96;98420.19;107004;1255;61114;-76
2023/01/18 03:57:11;;;;;;;11.50;6.80;;;;;;;-3.78;93.66;98420.60;107035;1257;75405;-76
2023/01/18 03:59:39;;;;;;;10.40;6.60;;;;;;;-3.82;93.50;98422.36;107269;1257;69701;-76
2023/01/18 04:02:07;;;;;;;13.80;6.60;;;;;;;-3.84;93.55;98422.98;107051;1256;71418;-76
2023/01/18 04:04:42;;;;;;;11.70;6.80;;;;;;;-3.86;93.89;98423.95;106850;1257;61833;-77
2023/01/18 04:07:09;;;;;;;12.00;6.60;;;;;;;-3.87;93.83;98426.67;107296;1257;61192;-77
2023/01/18 04:09:37;;;;;;;10.90;6.50;;;;;;;-3.88;93.95;98426.23;107151;1257;74589;-77
2023/01/18 04:12:04;;;;;;;12.40;6.80;;;;;;;-3.88;94.11;98431.27;107126;1256;69848;-76
2023/01/18 04:14:31;;;;;;;11.90;6.60;;;;;;;-3.91;94.06;98436.14;106814;1257;71718;-77
2023/01/18 04:16:58;;;;;;;12.40;7.10;;;;;;;-3.93;93.90;98439.48;106872;1257;61286;-76
2023/01/18 04:19:27;;;;;;;11.40;6.80;;;;;;;-3.96;93.95;98443.85;106842;1260;61149;-78
2023/01/18 04:21:54;;;;;;;11.80;7.50;;;;;;;-3.97;94.13;98446.92;107020;1257;72568;-78
2023/01/18 04:24:21;;;;;;;11.10;6.40;;;;;;;-3.99;93.96;98450.55;106934;1257;70086;-78
2023/01/18 04:26:49;;;;;;;14.00;7.30;;;;;;;-4.03;93.78;98452.30;107221;1256;73357;-76
2023/01/18 04:29:20;;;;;;;13.30;7.40;;;;;;;-4.07;93.88;98461.45;106930;1260;61449;-77
2023/01/18 04:31:47;;;;;;;12.40;7.20;;;;;;;-4.10;94.42;98464.27;107049;1257;61235;-77
2023/01/18 04:34:14;;;;;;;12.80;7.20;;;;;;;-4.09;95.35;98467.09;106899;1257;72569;-78
2023/01/18 04:36:42;;;;;;;14.40;7.40;;;;;;;-4.05;96.48;98469.52;106899;1260;70836;-76
2023/01/18 04:39:12;;;;;;;13.70;8.10;;;;;;;-4.00;97.40;98468.11;107056;1255;72509;-78
2023/01/18 04:41:38;;;;;;;14.10;8.70;;;;;;;-3.96;97.37;98472.55;107178;1256;62198;-76
2023/01/18 04:44:06;;;;;;;13.70;7.90;;;;;;;-3.92;97.54;98477.55;107318;1257;61270;-77
2023/01/18 04:46:34;;;;;;;15.00;8.30;;;;;;;-3.91;97.34;98472.92;107043;1257;73681;-78
2023/01/18 04:49:01;;;;;;;14.10;8.10;;;;;;;-3.86;97.39;98473.55;107062;1256;70963;-78
2023/01/18 04:51:30;;;;;;;16.50;8.80;;;;;;;-3.82;97.56;98478.66;107357;1257;72377;-77
2023/01/18 04:53:58;;;;;;;15.30;8.30;;;;;;;-3.77;97.58;98483.93;107068;1257;61739;-76
2023/01/18 04:56:25;;;;;;;14.60;8.40;;;;;;;-3.72;97.68;98480.35;106852;1256;61318;-77
2023/01/18 04:58:53;;;;;;;16.20;9.20;;;;;;;-3.67;97.47;98483.45;107010;1256;74095;-76
2023/01/18 05:01:21;;;;;;;16.10;9.40;;;;;;;-3.64;97.27;98482.98;107230;1256;70247;-76
2023/01/18 05:03:48;;;;;;;16.00;9.00;;;;;;;-3.60;97.10;98489.73;106914;1256;73973;-77
2023/01/18 05:06:18;;;;;;;16.00;9.50;;;;;;;-3.57;97.02;98490.94;106892;1261;61192;-76
2023/01/18 05:08:46;;;;;;;18.30;9.70;;;;;;;-3.52;97.03;98493.98;107083;1258;61783;-76
2023/01/18 05:11:14;;;;;;;16.30;9.10;;;;;;;-3.48;97.19;98496.40;106915;1256;73131;-77
2023/01/18 05:13:42;;;;;;;18.10;9.20;;;;;;;-3.44;97.27;98496.53;106924;1257;72455;-77
2023/01/18 05:16:14;;;;;;;16.90;8.70;;;;;;;-3.40;97.05;98496.00;107378;1256;73296;-76
2023/01/18 05:18:42;;;;;;;18.60;9.50;;;;;;;-3.38;96.88;98502.72;107144;1257;62061;-77
2023/01/18 05:21:10;;;;;;;18.50;12.10;;;;;;;-3.38;96.51;98501.84;107306;1260;61211;-77
2023/01/18 05:23:39;;;;;;;19.80;11.80;;;;;;;-3.37;96.37;98504.05;107042;1256;74793;-76
2023/01/18 05:26:13;;;;;;;20.30;13.50;;;;;;;-3.38;96.17;98511.31;107024;1256;69957;-77
2023/01/18 05:28:41;;;;;;;19.70;12.60;;;;;;;-3.37;96.13;98511.80;106998;1257;72781;-76
2023/01/18 05:31:08;;;;;;;19.60;11.60;;;;;;;-3.38;95.88;98509.62;107170;1256;61324;-76
2023/01/18 05:33:36;;;;;;;20.70;12.60;;;;;;;-3.39;95.80;98512.45;107255;1257;61269;-76
2023/01/18 05:36:03;;;;;;;19.40;11.20;;;;;;;-3.41;95.68;98513.52;107159;1256;74664;-76
2023/01/18 05:38:30;;;;;;;13.90;9.70;;;;;;;-3.42;95.74;98515.81;107074;1257;69714;-76
2023/01/18 05:40:57;;;;;;;15.20;9.20;;;;;;;-3.41;95.97;98520.61;107096;1257;72574;-77
2023/01/18 05:43:26;;;;;;;13.80;8.80;;;;;;;-3.40;96.06;98518.81;107044;1257;61160;-77
2023/01/18 05:45:54;;;;;;;17.30;9.30;;;;;;;-3.39;96.00;98521.33;106976;1260;61629;-77
2023/01/18 05:48:21;;;;;;;16.10;8.70;;;;;;;-3.41;95.87;98522.99;107259;1256;74673;-76
2023/01/18 05:50:48;;;;;;;12.50;7.90;;;;;;;-3.42;95.77;98522.65;107755;1256;68821;-76
2023/01/18 05:53:18;;;;;;;13.60;7.80;;;;;;;-3.42;95.80;98528.33;108252;1255;71554;-76
2023/01/18 05:55:58;;;;;;;16.30;7.80;;;;;;;-3.42;95.85;98530.55;107781;1256;59956;-75
2023/01/18 05:58:26;;;;;;;14.80;8.20;;;;;;;-3.41;95.82;98533.06;108041;1256;61170;-76
2023/01/18 06:00:54;;;;;;;13.20;7.50;;;;;;;-3.40;95.85;98530.73;107832;1257;73682;-77
2023/01/18 06:03:22;;;;;;;13.90;7.80;;;;;;;-3.38;95.89;98534.99;107915;1257;71183;-77
2023/01/18 06:05:50;;;;;;;14.10;7.70;;;;;;;-3.34;95.84;98541.27;107938;1257;73726;-77
2023/01/18 06:08:17;;;;;;;16.30;7.70;;;;;;;-3.32;95.71;98543.08;107805;1257;61819;-76
2023/01/18 06:10:52;;;;;;;11.70;7.30;;;;;;;-3.30;95.61;98552.22;108373;1255;61246;-76
2023/01/18 06:13:19;;;;;;;13.30;7.00;;;;;;;-3.28;95.44;98555.58;107785;1256;74705;-77
2023/01/18 06:15:47;;;;;;;12.80;7.90;;;;;;;-3.27;95.40;98558.77;107152;1257;71145;-77
2023/01/18 06:18:16;;;;;;;13.80;7.60;;;;;;;-3.24;95.51;98561.81;107102;1255;72509;-78
2023/01/18 06:20:43;;;;;;;13.50;8.20;;;;;;;-3.22;95.38;98562.66;106870;1256;61212;-77
2023/01/18 06:23:10;;;;;;;14.50;7.30;;;;;;;-3.23;95.25;98568.26;107065;1259;62022;-77
2023/01/18 06:25:37;;;;;;;12.30;7.80;;;;;;;-3.21;95.08;98568.25;107453;1256;75652;-76
2023/01/18 06:28:05;;;;;;;16.60;7.80;;;;;;;-3.21;95.10;98566.84;107039;1261;69695;-77
2023/01/18 06:30:33;;;;;;;12.10;6.90;;;;;;;-3.21;95.14;98570.49;106820;1259;71171;-77
2023/01/18 06:33:05;;;;;;;13.60;7.80;;;;;;;-3.23;94.83;98575.88;107158;1257;61618;-78
2023/01/18 06:35:33;;;;;;;11.30;7.20;;;;;;;-3.27;94.53;98579.29;107313;1259;60198;-81
2023/01/18 06:38:02;;;;;;;14.10;8.00;;;;;;;-3.29;94.58;98581.34;106855;1260;77315;-78
2023/01/18 06:40:29;;;;;;;16.90;9.60;;;;;;;-3.30;94.47;98585.65;106966;1259;69673;-78
2023/01/18 06:42:57;;;;;;;13.50;8.00;;;;;;;-3.33;94.21;98590.37;107494;1257;71227;-77
2023/01/18 06:45:27;;;;;;;16.20;8.90;;;;;;;-3.36;94.07;98590.32;107241;1256;63130;-77
2023/01/18 06:47:54;;;;;;;20.10;8.70;;;;;;;-3.38;94.20;98593.29;106978;1261;61666;-77
2023/01/18 06:50:21;;;;;;;15.10;8.10;;;;;;;-3.40;94.10;98596.36;107258;1256;73466;-78
2023/01/18 06:52:50;;;;;;;18.10;8.30;;;;;;;-3.42;94.09;98595.17;107163;1262;69830;-77
2023/01/18 06:55:18;;;;;;;14.20;8.20;;;;;;;-3.42;94.19;98598.80;107081;1256;71262;-77
2023/01/18 06:57:46;;;;;;;15.30;8.60;;;;;;;-3.41;94.50;98601.98;107360;1257;61273;-76
2023/01/18 07:00:15;;;;;;;18.20;10.50;;;;;;;-3.38;94.65;98602.80;108749;1256;58820;-76
2023/01/18 07:02:43;;;;;;;18.20;10.60;;;;;;;-3.34;94.93;98602.96;108668;1257;74658;-77
2023/01/18 07:05:10;;;;;;;18.20;10.20;;;;;;;-3.31;94.89;98603.48;108442;1256;69671;-77
2023/01/18 07:07:37;;;;;;;16.80;9.10;;;;;;;-3.27;94.94;98607.67;107255;1257;72530;-77
2023/01/18 07:10:05;;;;;;;14.60;7.90;;;;;;;-3.24;94.85;98612.07;107068;1256;62238;-76
2023/01/18 07:12:32;;;;;;;14.40;8.00;;;;;;;-3.19;94.90;98621.70;107282;1257;61142;-78
2023/01/18 07:14:59;;;;;;;14.00;8.20;;;;;;;-3.18;94.73;98627.23;107966;1256;74755;-78
2023/01/18 07:17:46;;;;;;;15.50;8.70;;;;;;;-3.13;94.82;98636.34;107763;1256;71141;-77
2023/01/18 07:20:14;;;;;;;13.60;8.30;;;;;;;-3.10;94.50;98641.94;107447;1256;72404;-78
2023/01/18 07:22:42;;;;;;;20.50;8.60;;;;;;;-3.06;94.49;98645.38;107431;1256;61825;-77
2023/01/18 07:25:12;;;;;;;15.20;8.10;;;;;;;-3.01;94.37;98646.35;107560;1257;61055;-78
2023/01/18 07:27:42;;;;;;;16.60;8.10;;;;;;;-2.95;94.39;98652.33;108373;1255;74662;-78
2023/01/18 07:30:12;;;;;;;14.50;7.60;;;;;;;-2.90;94.44;98656.16;107801;1261;70861;-78
2023/01/18 07:32:47;;;;;;;16.90;7.90;;;;;;;-2.85;94.24;98665.06;107488;1256;70692;-79
2023/01/18 07:35:16;;;;;;;13.90;8.00;;;;;;;-2.81;94.12;98668.36;107629;1256;61264;-77
2023/01/18 07:37:48;;;;;;;12.50;7.20;;;;;;;-2.80;93.84;98669.87;107362;1255;61078;-78
2023/01/18 07:40:15;;;;;;;11.40;6.80;;;;;;;-2.78;93.87;98671.55;107276;1257;73200;-78
2023/01/18 07:42:42;;;;;;;14.70;7.40;;;;;;;-2.76;93.91;98678.08;107206;1257;71893;-79
2023/01/18 07:45:12;;;;;;;15.00;7.70;;;;;;;-2.73;93.96;98682.52;107216;1256;73737;-78
2023/01/18 07:47:45;;;;;;;15.50;7.90;;;;;;;-2.69;93.89;98679.58;107084;1262;62227;-79
2023/01/18 07:50:13;;;;;;;13.30;6.90;;;;;;;-2.66;93.77;98686.20;107497;1257;61369;-78
2023/01/18 07:52:42;;;;;;;12.80;7.50;;;;;;;-2.63;93.72;98685.10;107686;1256;74757;-78
2023/01/18 07:55:09;;;;;;;12.60;6.60;;;;;;;-2.60;93.92;98688.23;107154;1261;69899;-78
2023/01/18 07:57:36;;;;;;;13.80;7.00;;;;;;;-2.56;93.95;98690.69;107253;1257;72494;-77
2023/01/18 08:00:06;;;;;;;11.60;6.50;;;;;;;-2.54;93.69;98692.04;107438;1257;61889;-78
2023/01/18 08:02:34;;;;;;;15.60;8.10;;;;;;;-2.51;93.67;98697.26;107386;1257;62099;-77
2023/01/18 08:05:02;;;;;;;13.70;8.40;;;;;;;-2.48;93.58;98697.71;107335;1256;74061;-78
2023/01/18 08:07:32;;;;;;;13.60;7.40;;;;;;;-2.42;93.75;98699.66;107101;1257;68706;-78
2023/01/18 08:09:58;;;;;;;13.50;7.10;;;;;;;-2.38;93.80;98702.54;107771;1257;70540;-77
2023/01/18 08:12:26;;;;;;;13.60;7.00;;;;;;;-2.32;93.61;98701.59;107501;1256;60728;-77
2023/01/18 08:14:53;;;;;;;16.20;7.40;;;;;;;-2.27;93.62;98694.71;107543;1256;61158;-77
2023/01/18 08:17:21;;;;;;;17.50;7.50;;;;;;;-2.22;93.44;98698.63;107211;1257;73493;-77
2023/01/18 08:19:48;;;;;;;14.20;7.60;;;;;;;-2.18;92.92;98700.48;107203;1256;69747;-76
2023/01/18 08:22:15;;;;;;;12.20;6.70;;;;;;;-2.13;93.06;98706.42;107191;1256;73228;-77
2023/01/18 08:24:42;;;;;;;14.90;7.10;;;;;;;-2.07;92.82;98711.40;107315;1256;61240;-77
2023/01/18 08:27:09;;;;;;;13.70;7.50;;;;;;;-2.01;92.61;98711.73;107210;1255;61683;-76
2023/01/18 08:29:36;;;;;;;14.30;8.40;;;;;;;-1.94;92.84;98711.23;107313;1257;75843;-78
2023/01/18 08:32:04;;;;;;;20.60;10.00;;;;;;;-1.84;92.92;98717.95;107255;1256;70968;-78
2023/01/18 08:34:31;;;;;;;13.10;8.00;;;;;;;-1.75;92.76;98721.59;107058;1256;72721;-77
2023/01/18 08:36:57;;;;;;;16.30;9.60;;;;;;;-1.68;92.18;98726.59;106999;1256;61311;-77
2023/01/18 08:39:25;;;;;;;17.70;8.70;;;;;;;-1.60;92.36;98728.86;107002;1256;62347;-75
2023/01/18 08:41:51;;;;;;;16.10;8.30;;;;;;;-1.53;91.95;98729.55;107066;1256;75046;-74
2023/01/18 08:44:19;;;;;;;12.30;7.30;;;;;;;-1.45;91.88;98731.19;107101;1256;69641;-75
2023/01/18 08:46:46;;;;;;;12.00;6.90;;;;;;;-1.36;91.87;98738.66;107264;1255;72693;-76
2023/01/18 08:49:14;;;;;;;13.40;8.50;;;;;;;-1.28;91.48;98735.33;106912;1255;62671;-75
2023/01/18 08:51:41;;;;;;;15.90;10.30;;;;;;;-1.19;91.33;98741.59;107088;1256;62106;-76
2023/01/18 08:54:08;;;;;;;14.10;8.80;;;;;;;-1.12;90.97;98742.31;107096;1257;75730;-77
2023/01/18 08:56:35;;;;;;;14.90;8.40;;;;;;;-1.04;90.79;98748.61;106799;1255;69722;-76
2023/01/18 08:59:07;;;;;;;10.80;7.00;;;;;;;-0.93;90.76;98753.13;106644;1257;71132;-76
2023/01/18 09:01:34;;;;;;;11.50;6.80;;;;;;;-0.82;90.52;98756.21;106828;1262;61181;-78
2023/01/18 09:04:01;;;;;;;14.30;7.60;;;;;;;-0.72;90.19;98756.81;107363;1256;60280;-76
2023/01/18 09:06:30;;;;;;;13.40;7.70;;;;;;;-0.64;89.93;98757.95;107215;1257;74456;-77
2023/01/18 09:08:58;;;;;;;13.00;7.70;;;;;;;-0.55;89.80;98762.20;107010;1256;70933;-76
2023/01/18 09:11:25;;;;;;;10.90;7.30;;;;;;;-0.48;89.09;98763.11;107045;1255;73167;-74
2023/01/18 09:13:53;;;;;;;13.30;7.20;;;;;;;-0.42;88.45;98768.80;107090;1256;60064;-76
2023/01/18 09:16:28;;;;;;;11.30;7.00;;;;;;;-0.36;87.90;98771.73;107190;1256;61753;-77
2023/01/18 09:18:55;;;;;;;11.50;6.50;;;;;;;-0.32;87.02;98773.59;107648;1256;74373;-77
2023/01/18 09:21:22;;;;;;;11.60;7.00;;;;;;;-0.29;86.34;98776.58;107081;1257;71383;-78
2023/01/18 09:23:49;;;;;;;11.80;7.00;;;;;;;-0.29;86.03;98778.92;107247;1256;73403;-78
2023/01/18 09:26:19;;;;;;;16.20;7.40;;;;;;;-0.23;85.81;98786.70;107183;1256;61179;-77
2023/01/18 09:28:47;;;;;;;15.50;7.70;;;;;;;-0.18;85.76;98785.67;106841;1256;60354;-77
2023/01/18 09:31:15;;;;;;;12.80;7.10;;;;;;;-0.14;85.20;98787.36;107027;1256;73739;-77
2023/01/18 09:33:42;;;;;;;14.90;8.50;;;;;;;-0.08;85.12;98788.82;107215;1255;71204;-77
2023/01/18 09:36:22;;;;;;;17.20;8.40;;;;;;;-0.02;85.12;98790.66;107095;1256;72806;-78
2023/01/18 09:38:49;;;;;;;14.70;9.50;;;;;;;0.06;84.94;98794.58;107447;1257;61640;-78
2023/01/18 09:41:33;;;;;;;13.80;8.80;;;;;;;0.15;85.06;98796.64;107050;1256;61104;-78
2023/01/18 09:44:06;;;;;;;14.00;8.20;;;;;;;0.24;84.79;98793.95;107058;1257;73958;-76
2023/01/18 09:46:36;;;;;;;16.20;9.00;;;;;;;0.32;84.38;98792.59;107079;1257;71749;-77
2023/01/18 09:49:06;;;;;;;13.50;8.00;;;;;;;0.41;84.37;98795.35;107045;1256;72438;-76
2023/01/18 09:52:04;;;;;;;15.80;8.60;;;;;;;0.49;83.84;98798.44;106880;1256;61216;-76
2023/01/18 09:54:49;;;;;;;13.80;8.40;;;;;;;0.57;83.70;98799.55;106937;1256;61202;-76
2023/01/18 09:57:16;;;;;;;13.40;8.60;;;;;;;0.66;83.54;98804.18;107287;1257;73898;-77
2023/01/18 09:59:54;;;;;;;13.90;7.90;;;;;;;0.76;83.59;98804.82;107217;1256;69802;-78
2023/01/18 10:02:37;;;;;;;12.40;7.60;;;;;;;0.83;82.73;98801.23;107203;1256;72442;-77
2023/01/18 10:05:08;;;;;;;15.70;8.00;;;;;;;0.90;82.19;98804.48;107193;1256;61234;-77
2023/01/18 10:07:44;;;;;;;11.90;7.60;;;;;;;0.93;81.72;98807.61;106810;1255;61340;-76
2023/01/18 10:10:17;;;;;;;11.90;7.70;;;;;;;0.97;81.51;98810.11;107202;1255;73722;-77
2023/01/18 10:13:07;;;;;;;12.20;7.70;;;;;;;1.02;81.64;98808.13;107016;1257;70025;-77
2023/01/18 10:15:35;;;;;;;12.80;8.10;;;;;;;1.11;82.09;98807.78;107245;1255;71378;-77
2023/01/18 10:18:02;;;;;;;12.00;7.50;;;;;;;1.20;81.53;98807.24;107216;1255;61292;-76
2023/01/18 10:20:56;;;;;;;13.60;8.10;;;;;;;1.28;81.42;98809.61;107026;1256;61250;-78
2023/01/18 10:24:23;;;;;;;15.50;8.60;;;;;;;1.36;81.37;98810.95;107070;1257;73196;-78
2023/01/18 10:26:57;;;;;;;15.10;7.70;;;;;;;1.43;80.86;98811.25;106770;1256;71170;-76
2023/01/18 10:29:26;;;;;;;14.30;8.40;;;;;;;1.51;80.78;98815.17;107190;1256;72760;-78
2023/01/18 10:32:02;;;;;;;14.40;8.50;;;;;;;1.59;80.91;98818.80;107069;1256;61678;-79
2023/01/18 10:34:34;;;;;;;14.30;8.40;;;;;;;1.63;79.72;98818.17;107264;1255;61160;-78
2023/01/18 10:37:13;;;;;;;14.70;8.00;;;;;;;1.65;79.11;98820.44;106709;1256;75282;-78
2023/01/18 10:39:46;;;;;;;14.90;8.30;;;;;;;1.72;79.60;98818.90;107123;1256;71637;-79
2023/01/18 10:42:33;;;;;;;10.90;7.70;;;;;;;1.77;79.10;98821.09;107507;1255;72438;-79
2023/01/18 10:45:00;;;;;;;12.70;8.10;;;;;;;1.84;79.00;98818.92;109118;1255;61823;-80
2023/01/18 10:47:27;;;;;;;14.80;7.60;;;;;;;1.92;79.37;98818.55;108571;1255;496389;-76
2023/01/18 10:49:58;;;;;;;12.30;7.60;;;;;;;2.04;79.36;98814.34;107992;1256;73530;-74
2023/01/18 10:52:30;;;;;;;14.90;8.70;;;;;;;2.18;79.60;98813.86;107553;1256;71347;-75
2023/01/18 10:55:00;;;;;;;13.10;8.30;;;;;;;2.36;79.50;98816.98;107169;1257;71537;-75
2023/01/18 10:57:35;;;;;;;15.50;8.00;;;;;;;2.49;79.14;98824.49;106909;1257;61289;-78
2023/01/18 11:00:11;;;;;;;13.60;7.50;;;;;;;2.56;78.03;98828.23;107110;1255;59827;-77
2023/01/18 11:02:39;;;;;;;13.20;7.50;;;;;;;2.61;77.88;98825.38;107011;1256;74813;-76
2023/01/18 11:05:05;;;;;;;11.80;7.80;;;;;;;2.70;77.53;98826.35;106821;1256;69824;-79
2023/01/18 11:07:32;;;;;;;13.00;7.80;;;;;;;2.74;77.01;98824.86;107284;1256;70337;-79
2023/01/18 11:10:05;;;;;;;11.20;7.20;;;;;;;2.80;77.28;98820.96;106904;1255;61196;-75
2023/01/18 11:12:43;;;;;;;14.40;8.60;;;;;;;2.87;76.35;98826.02;107615;1255;61245;-76
2023/01/18 11:15:12;;;;;;;17.50;7.60;;;;;;;2.88;75.14;98830.39;107246;1256;74003;-76
2023/01/18 11:17:45;;;;;;;11.90;7.90;;;;;;;2.88;75.29;98837.28;107212;1256;70850;-75
2023/01/18 11:20:20;;;;;;;12.90;7.40;;;;;;;2.92;75.62;98833.16;106722;1256;71598;-76
2023/01/18 11:23:13;;;;;;;14.30;7.90;;;;;;;2.99;75.38;98830.29;107637;1255;61259;-76
2023/01/18 11:25:45;;;;;;;11.60;7.40;;;;;;;3.06;74.64;98832.10;106731;1256;61264;-76
2023/01/18 11:28:25;;;;;;;12.00;7.30;;;;;;;3.17;74.20;98831.75;107619;1256;75037;-76
2023/01/18 11:30:57;;;;;;;13.20;8.00;;;;;;;3.22;73.82;98833.21;107041;1257;69878;-75
2023/01/18 11:33:27;;;;;;;14.60;7.50;;;;;;;3.28;73.91;98834.30;107025;1256;71232;-77
2023/01/18 11:35:57;;;;;;;10.80;6.60;;;;;;;3.44;73.81;98837.92;107161;1256;61346;-77
2023/01/18 11:38:33;;;;;;;14.30;7.50;;;;;;;3.57;73.23;98838.91;107337;1256;60610;-75
2023/01/18 11:41:11;;;;;;;13.60;7.70;;;;;;;3.70;72.71;98841.27;107559;1256;74493;-77
2023/01/18 11:43:41;;;;;;;11.40;7.20;;;;;;;3.79;71.56;98839.89;106962;1257;71403;-77
2023/01/18 11:46:16;;;;;;;13.70;7.60;;;;;;;3.90;71.14;98837.08;107039;1255;73032;-77
2023/01/18 11:48:49;;;;;;;13.20;7.40;;;;;;;4.07;70.68;98833.35;106797;1258;61256;-75
2023/01/18 11:51:32;;;;;;;10.80;7.30;;;;;;;4.31;70.26;98838.39;107119;1256;60405;-76
2023/01/18 11:54:29;;;;;;;11.20;6.80;;;;;;;4.59;68.94;98842.44;106957;1256;76147;-76
2023/01/18 11:57:01;;;;;;;13.20;7.10;;;;;;;4.83;67.52;98841.66;107071;1256;69660;-77
2023/01/18 11:59:41;;;;;;;10.80;6.90;;;;;;;5.06;67.31;98843.83;107104;1256;71861;-75
2023/01/18 12:02:46;;;;;;;18.10;9.80;;;;;;;5.38;67.17;98845.40;107118;1258;61628;-76
2023/01/18 12:05:27;;;;;;;25.30;11.80;;;;;;;5.59;65.45;98844.59;107000;1256;61162;-76
2023/01/18 12:08:02;;;;;;;13.70;7.10;;;;;;;5.62;64.26;98841.95;106933;1256;73434;-76
2023/01/18 12:10:47;;;;;;;13.50;7.00;;;;;;;5.61;64.15;98846.26;106974;1256;70351;-76
2023/01/18 12:13:21;;;;;;;10.90;6.50;;;;;;;5.75;63.73;98845.41;107099;1257;71153;-75
2023/01/18 12:16:12;;;;;;;11.00;6.40;;;;;;;5.92;63.16;98842.49;107114;1256;61286;-76